sensor_id;sensor_type;location;lat;lon;timestamp;temperature;humidity
5960;DHT22;3006;50.956;7.002;2024-02-21T00:01:42;9.40;79.20
5960;DHT22;3006;50.956;7.002;2024-02-21T00:04:10;9.30;79.30
5960;DHT22;3006;50.956;7.002;2024-02-21T00:06:38;9.40;79.40
5960;DHT22;3006;50.956;7.002;2024-02-21T00:09:06;9.40;78.90
5960;DHT22;3006;50.956;7.002;2024-02-21T00:11:37;9.40;78.70
5960;DHT22;3006;50.956;7.002;2024-02-21T00:14:06;9.40;78.90
5960;DHT22;3006;50.956;7.002;2024-02-21T00:16:34;9.50;78.70
5960;DHT22;3006;50.956;7.002;2024-02-21T00:19:02;9.40;78.70
5960;DHT22;3006;50.956;7.002;2024-02-21T00:21:30;9.40;79.20
5960;DHT22;3006;50.956;7.002;2024-02-21T00:23:58;9.40;79.10
5960;DHT22;3006;50.956;7.002;2024-02-21T00:26:26;9.40;79.20
5960;DHT22;3006;50.956;7.002;2024-02-21T00:28:56;9.40;79.50
5960;DHT22;3006;50.956;7.002;2024-02-21T00:31:24;9.40;79.80
5960;DHT22;3006;50.956;7.002;2024-02-21T00:33:52;9.40;79.80
5960;DHT22;3006;50.956;7.002;2024-02-21T00:36:20;9.40;79.70
5960;DHT22;3006;50.956;7.002;2024-02-21T00:38:48;9.40;79.80
5960;DHT22;3006;50.956;7.002;2024-02-21T00:41:17;9.40;80.00
5960;DHT22;3006;50.956;7.002;2024-02-21T00:43:45;9.40;79.90
5960;DHT22;3006;50.956;7.002;2024-02-21T00:46:17;9.40;80.00
5960;DHT22;3006;50.956;7.002;2024-02-21T00:48:45;9.40;80.00
5960;DHT22;3006;50.956;7.002;2024-02-21T00:51:13;9.40;80.10
5960;DHT22;3006;50.956;7.002;2024-02-21T00:53:42;9.30;80.60
5960;DHT22;3006;50.956;7.002;2024-02-21T00:56:11;9.40;80.30
5960;DHT22;3006;50.956;7.002;2024-02-21T00:58:39;9.40;80.50
5960;DHT22;3006;50.956;7.002;2024-02-21T01:01:07;9.40;80.70
5960;DHT22;3006;50.956;7.002;2024-02-21T01:03:39;9.30;80.70
5960;DHT22;3006;50.956;7.002;2024-02-21T01:06:07;9.40;80.70
5960;DHT22;3006;50.956;7.002;2024-02-21T01:08:35;9.40;80.60
5960;DHT22;3006;50.956;7.002;2024-02-21T01:11:03;9.40;80.70
5960;DHT22;3006;50.956;7.002;2024-02-21T01:13:32;9.20;80.90
5960;DHT22;3006;50.956;7.002;2024-02-21T01:16:00;9.20;81.00
5960;DHT22;3006;50.956;7.002;2024-02-21T01:18:28;9.30;81.20
5960;DHT22;3006;50.956;7.002;2024-02-21T01:20:58;9.30;81.20
5960;DHT22;3006;50.956;7.002;2024-02-21T01:23:26;9.30;81.20
5960;DHT22;3006;50.956;7.002;2024-02-21T01:25:54;9.40;81.20
5960;DHT22;3006;50.956;7.002;2024-02-21T01:28:23;9.40;81.40
5960;DHT22;3006;50.956;7.002;2024-02-21T01:30:51;9.30;81.50
5960;DHT22;3006;50.956;7.002;2024-02-21T01:33:19;9.30;81.50
5960;DHT22;3006;50.956;7.002;2024-02-21T01:35:48;9.20;81.70
5960;DHT22;3006;50.956;7.002;2024-02-21T01:38:17;9.30;81.60
5960;DHT22;3006;50.956;7.002;2024-02-21T01:40:46;9.30;81.60
5960;DHT22;3006;50.956;7.002;2024-02-21T01:43:18;9.30;81.50
5960;DHT22;3006;50.956;7.002;2024-02-21T01:45:49;9.30;82.00
5960;DHT22;3006;50.956;7.002;2024-02-21T01:48:18;9.30;82.00
5960;DHT22;3006;50.956;7.002;2024-02-21T01:50:47;9.20;81.80
5960;DHT22;3006;50.956;7.002;2024-02-21T01:53:20;9.30;81.70
5960;DHT22;3006;50.956;7.002;2024-02-21T01:55:49;9.30;81.70
5960;DHT22;3006;50.956;7.002;2024-02-21T01:58:18;9.30;81.50
5960;DHT22;3006;50.956;7.002;2024-02-21T02:00:48;9.20;81.50
5960;DHT22;3006;50.956;7.002;2024-02-21T02:03:16;9.20;81.80
5960;DHT22;3006;50.956;7.002;2024-02-21T02:05:45;9.20;82.10
5960;DHT22;3006;50.956;7.002;2024-02-21T02:08:14;9.30;81.70
5960;DHT22;3006;50.956;7.002;2024-02-21T02:10:43;9.20;81.80
5960;DHT22;3006;50.956;7.002;2024-02-21T02:13:12;9.20;82.00
5960;DHT22;3006;50.956;7.002;2024-02-21T02:15:41;9.20;82.20
5960;DHT22;3006;50.956;7.002;2024-02-21T02:18:10;9.10;82.60
5960;DHT22;3006;50.956;7.002;2024-02-21T02:20:39;9.00;82.90
5960;DHT22;3006;50.956;7.002;2024-02-21T02:23:10;9.10;82.50
5960;DHT22;3006;50.956;7.002;2024-02-21T02:25:40;9.20;82.50
5960;DHT22;3006;50.956;7.002;2024-02-21T02:28:08;9.20;82.60
5960;DHT22;3006;50.956;7.002;2024-02-21T02:30:37;9.20;82.50
5960;DHT22;3006;50.956;7.002;2024-02-21T02:33:05;9.20;82.60
5960;DHT22;3006;50.956;7.002;2024-02-21T02:35:33;9.10;82.90
5960;DHT22;3006;50.956;7.002;2024-02-21T02:38:02;9.20;82.70
5960;DHT22;3006;50.956;7.002;2024-02-21T02:40:31;9.20;82.60
5960;DHT22;3006;50.956;7.002;2024-02-21T02:43:00;9.10;82.80
5960;DHT22;3006;50.956;7.002;2024-02-21T02:45:28;9.20;82.70
5960;DHT22;3006;50.956;7.002;2024-02-21T02:47:57;9.20;82.50
5960;DHT22;3006;50.956;7.002;2024-02-21T02:50:26;9.20;82.60
5960;DHT22;3006;50.956;7.002;2024-02-21T02:52:54;9.00;83.00
5960;DHT22;3006;50.956;7.002;2024-02-21T02:55:23;9.00;83.40
5960;DHT22;3006;50.956;7.002;2024-02-21T02:57:52;9.00;83.70
5960;DHT22;3006;50.956;7.002;2024-02-21T03:00:22;9.00;83.70
5960;DHT22;3006;50.956;7.002;2024-02-21T03:02:50;9.00;83.40
5960;DHT22;3006;50.956;7.002;2024-02-21T03:05:20;9.00;83.50
5960;DHT22;3006;50.956;7.002;2024-02-21T03:07:49;9.10;83.30
5960;DHT22;3006;50.956;7.002;2024-02-21T03:10:17;9.00;83.40
5960;DHT22;3006;50.956;7.002;2024-02-21T03:12:46;9.10;83.10
5960;DHT22;3006;50.956;7.002;2024-02-21T03:15:15;9.10;83.20
5960;DHT22;3006;50.956;7.002;2024-02-21T03:17:44;9.00;83.50
5960;DHT22;3006;50.956;7.002;2024-02-21T03:20:12;9.00;83.50
5960;DHT22;3006;50.956;7.002;2024-02-21T03:22:41;9.00;83.50
5960;DHT22;3006;50.956;7.002;2024-02-21T03:25:09;9.00;83.70
5960;DHT22;3006;50.956;7.002;2024-02-21T03:27:38;9.00;83.60
5960;DHT22;3006;50.956;7.002;2024-02-21T03:30:07;9.00;83.60
5960;DHT22;3006;50.956;7.002;2024-02-21T03:32:35;9.00;83.60
5960;DHT22;3006;50.956;7.002;2024-02-21T03:35:06;9.20;83.20
5960;DHT22;3006;50.956;7.002;2024-02-21T03:37:35;9.10;83.10
5960;DHT22;3006;50.956;7.002;2024-02-21T03:40:07;9.00;83.60
5960;DHT22;3006;50.956;7.002;2024-02-21T03:42:35;9.10;83.20
5960;DHT22;3006;50.956;7.002;2024-02-21T03:45:04;9.10;83.40
5960;DHT22;3006;50.956;7.002;2024-02-21T03:47:32;9.20;83.00
5960;DHT22;3006;50.956;7.002;2024-02-21T03:50:00;9.10;83.40
5960;DHT22;3006;50.956;7.002;2024-02-21T03:52:30;9.00;83.60
5960;DHT22;3006;50.956;7.002;2024-02-21T03:54:58;9.00;83.60
5960;DHT22;3006;50.956;7.002;2024-02-21T03:57:26;9.20;83.50
5960;DHT22;3006;50.956;7.002;2024-02-21T03:59:55;9.10;83.40
5960;DHT22;3006;50.956;7.002;2024-02-21T04:02:23;9.00;83.50
5960;DHT22;3006;50.956;7.002;2024-02-21T04:04:51;9.00;83.50
5960;DHT22;3006;50.956;7.002;2024-02-21T04:07:19;9.00;83.60
5960;DHT22;3006;50.956;7.002;2024-02-21T04:09:49;9.00;83.30
5960;DHT22;3006;50.956;7.002;2024-02-21T04:12:17;9.00;83.60
5960;DHT22;3006;50.956;7.002;2024-02-21T04:14:45;9.00;83.50
5960;DHT22;3006;50.956;7.002;2024-02-21T04:17:13;9.00;83.40
5960;DHT22;3006;50.956;7.002;2024-02-21T04:19:41;9.00;83.60
5960;DHT22;3006;50.956;7.002;2024-02-21T04:22:10;9.00;83.50
5960;DHT22;3006;50.956;7.002;2024-02-21T04:24:38;9.00;83.20
5960;DHT22;3006;50.956;7.002;2024-02-21T04:27:07;8.90;83.40
5960;DHT22;3006;50.956;7.002;2024-02-21T04:29:35;8.90;83.50
5960;DHT22;3006;50.956;7.002;2024-02-21T04:32:04;8.90;83.30
5960;DHT22;3006;50.956;7.002;2024-02-21T04:34:33;8.90;83.60
5960;DHT22;3006;50.956;7.002;2024-02-21T04:37:01;8.90;83.60
5960;DHT22;3006;50.956;7.002;2024-02-21T04:39:29;8.80;83.90
5960;DHT22;3006;50.956;7.002;2024-02-21T04:41:57;8.80;83.70
5960;DHT22;3006;50.956;7.002;2024-02-21T04:44:27;8.80;83.90
5960;DHT22;3006;50.956;7.002;2024-02-21T04:46:55;8.80;83.80
5960;DHT22;3006;50.956;7.002;2024-02-21T04:49:23;8.80;84.00
5960;DHT22;3006;50.956;7.002;2024-02-21T04:51:52;8.80;84.20
5960;DHT22;3006;50.956;7.002;2024-02-21T04:54:20;8.80;83.80
5960;DHT22;3006;50.956;7.002;2024-02-21T04:56:48;8.90;83.20
5960;DHT22;3006;50.956;7.002;2024-02-21T04:59:19;8.90;83.10
5960;DHT22;3006;50.956;7.002;2024-02-21T05:01:49;8.90;83.20
5960;DHT22;3006;50.956;7.002;2024-02-21T05:04:17;8.90;83.20
5960;DHT22;3006;50.956;7.002;2024-02-21T05:06:45;8.90;83.30
5960;DHT22;3006;50.956;7.002;2024-02-21T05:09:14;8.90;83.20
5960;DHT22;3006;50.956;7.002;2024-02-21T05:11:42;8.80;83.40
5960;DHT22;3006;50.956;7.002;2024-02-21T05:14:10;8.90;83.30
5960;DHT22;3006;50.956;7.002;2024-02-21T05:16:38;8.80;83.40
5960;DHT22;3006;50.956;7.002;2024-02-21T05:19:08;8.90;83.50
5960;DHT22;3006;50.956;7.002;2024-02-21T05:21:36;8.90;83.30
5960;DHT22;3006;50.956;7.002;2024-02-21T05:24:05;8.90;83.20
5960;DHT22;3006;50.956;7.002;2024-02-21T05:26:33;8.90;83.30
5960;DHT22;3006;50.956;7.002;2024-02-21T05:29:01;8.90;83.20
5960;DHT22;3006;50.956;7.002;2024-02-21T05:31:54;8.90;83.10
5960;DHT22;3006;50.956;7.002;2024-02-21T05:34:24;8.90;83.20
5960;DHT22;3006;50.956;7.002;2024-02-21T05:36:54;8.90;83.10
5960;DHT22;3006;50.956;7.002;2024-02-21T05:39:22;9.00;83.00
5960;DHT22;3006;50.956;7.002;2024-02-21T05:41:50;9.00;82.60
5960;DHT22;3006;50.956;7.002;2024-02-21T05:44:19;9.00;82.40
5960;DHT22;3006;50.956;7.002;2024-02-21T05:46:49;9.00;82.30
5960;DHT22;3006;50.956;7.002;2024-02-21T05:49:17;9.00;82.20
5960;DHT22;3006;50.956;7.002;2024-02-21T05:51:47;9.10;82.10
5960;DHT22;3006;50.956;7.002;2024-02-21T05:54:15;9.10;82.00
5960;DHT22;3006;50.956;7.002;2024-02-21T05:56:46;9.10;81.90
5960;DHT22;3006;50.956;7.002;2024-02-21T05:59:14;9.10;82.10
5960;DHT22;3006;50.956;7.002;2024-02-21T06:01:42;9.00;82.10
5960;DHT22;3006;50.956;7.002;2024-02-21T06:04:11;9.00;82.00
5960;DHT22;3006;50.956;7.002;2024-02-21T06:06:40;9.10;81.90
5960;DHT22;3006;50.956;7.002;2024-02-21T06:09:09;9.10;82.10
5960;DHT22;3006;50.956;7.002;2024-02-21T06:11:38;9.00;82.20
5960;DHT22;3006;50.956;7.002;2024-02-21T06:14:06;9.00;82.00
5960;DHT22;3006;50.956;7.002;2024-02-21T06:16:34;9.10;81.90
5960;DHT22;3006;50.956;7.002;2024-02-21T06:19:02;9.00;82.00
5960;DHT22;3006;50.956;7.002;2024-02-21T06:21:36;9.00;82.60
5960;DHT22;3006;50.956;7.002;2024-02-21T06:24:04;9.00;82.60
5960;DHT22;3006;50.956;7.002;2024-02-21T06:26:34;9.00;82.40
5960;DHT22;3006;50.956;7.002;2024-02-21T06:29:02;9.00;82.60
5960;DHT22;3006;50.956;7.002;2024-02-21T06:31:30;9.00;82.60
5960;DHT22;3006;50.956;7.002;2024-02-21T06:33:59;9.10;82.50
5960;DHT22;3006;50.956;7.002;2024-02-21T06:36:27;9.10;82.20
5960;DHT22;3006;50.956;7.002;2024-02-21T06:38:55;9.20;82.10
5960;DHT22;3006;50.956;7.002;2024-02-21T06:41:24;9.20;82.10
5960;DHT22;3006;50.956;7.002;2024-02-21T06:43:53;9.20;82.40
5960;DHT22;3006;50.956;7.002;2024-02-21T06:46:25;9.20;82.40
5960;DHT22;3006;50.956;7.002;2024-02-21T06:48:53;9.20;82.70
5960;DHT22;3006;50.956;7.002;2024-02-21T06:51:24;9.00;83.00
5960;DHT22;3006;50.956;7.002;2024-02-21T06:53:52;9.10;83.10
5960;DHT22;3006;50.956;7.002;2024-02-21T06:56:23;9.10;83.10
5960;DHT22;3006;50.956;7.002;2024-02-21T06:58:55;9.20;83.10
5960;DHT22;3006;50.956;7.002;2024-02-21T07:01:23;9.20;82.90
5960;DHT22;3006;50.956;7.002;2024-02-21T07:03:52;9.10;83.00
5960;DHT22;3006;50.956;7.002;2024-02-21T07:06:20;9.10;83.10
5960;DHT22;3006;50.956;7.002;2024-02-21T07:08:48;9.10;82.80
5960;DHT22;3006;50.956;7.002;2024-02-21T07:11:16;9.10;83.00
5960;DHT22;3006;50.956;7.002;2024-02-21T07:13:45;9.20;82.80
5960;DHT22;3006;50.956;7.002;2024-02-21T07:16:14;9.20;82.90
5960;DHT22;3006;50.956;7.002;2024-02-21T07:18:42;9.10;82.90
5960;DHT22;3006;50.956;7.002;2024-02-21T07:21:11;9.10;82.90
5960;DHT22;3006;50.956;7.002;2024-02-21T07:23:40;9.00;82.70
5960;DHT22;3006;50.956;7.002;2024-02-21T07:26:09;9.10;82.90
5960;DHT22;3006;50.956;7.002;2024-02-21T07:28:37;9.10;83.00
5960;DHT22;3006;50.956;7.002;2024-02-21T07:31:05;9.20;82.90
5960;DHT22;3006;50.956;7.002;2024-02-21T07:33:35;9.20;82.90
5960;DHT22;3006;50.956;7.002;2024-02-21T07:36:06;9.20;83.00
5960;DHT22;3006;50.956;7.002;2024-02-21T07:38:34;9.10;84.40
5960;DHT22;3006;50.956;7.002;2024-02-21T07:41:03;10.70;82.60
5960;DHT22;3006;50.956;7.002;2024-02-21T07:43:32;11.50;78.70
5960;DHT22;3006;50.956;7.002;2024-02-21T07:46:00;11.80;75.70
5960;DHT22;3006;50.956;7.002;2024-02-21T07:48:28;11.70;74.70
5960;DHT22;3006;50.956;7.002;2024-02-21T07:51:02;12.00;73.10
5960;DHT22;3006;50.956;7.002;2024-02-21T07:53:30;12.10;71.90
5960;DHT22;3006;50.956;7.002;2024-02-21T07:55:59;11.90;71.80
5960;DHT22;3006;50.956;7.002;2024-02-21T07:58:27;11.50;73.90
5960;DHT22;3006;50.956;7.002;2024-02-21T08:00:55;11.80;72.70
5960;DHT22;3006;50.956;7.002;2024-02-21T08:03:24;11.50;72.90
5960;DHT22;3006;50.956;7.002;2024-02-21T08:05:52;10.40;76.10
5960;DHT22;3006;50.956;7.002;2024-02-21T08:08:22;9.70;79.10
5960;DHT22;3006;50.956;7.002;2024-02-21T08:10:51;9.40;80.90
5960;DHT22;3006;50.956;7.002;2024-02-21T08:13:20;9.20;81.70
5960;DHT22;3006;50.956;7.002;2024-02-21T08:15:48;9.30;81.50
5960;DHT22;3006;50.956;7.002;2024-02-21T08:18:16;9.20;81.80
5960;DHT22;3006;50.956;7.002;2024-02-21T08:20:45;9.20;82.00
5960;DHT22;3006;50.956;7.002;2024-02-21T08:23:16;9.10;82.00
5960;DHT22;3006;50.956;7.002;2024-02-21T08:25:45;9.10;82.20
5960;DHT22;3006;50.956;7.002;2024-02-21T08:28:14;9.00;82.20
5960;DHT22;3006;50.956;7.002;2024-02-21T08:30:42;9.00;82.40
5960;DHT22;3006;50.956;7.002;2024-02-21T08:33:15;9.00;82.00
5960;DHT22;3006;50.956;7.002;2024-02-21T08:35:44;9.00;82.50
5960;DHT22;3006;50.956;7.002;2024-02-21T08:38:12;9.00;82.50
5960;DHT22;3006;50.956;7.002;2024-02-21T08:40:40;9.10;82.30
5960;DHT22;3006;50.956;7.002;2024-02-21T08:43:10;9.00;82.00
5960;DHT22;3006;50.956;7.002;2024-02-21T08:45:38;9.10;82.10
5960;DHT22;3006;50.956;7.002;2024-02-21T08:48:07;9.10;82.00
5960;DHT22;3006;50.956;7.002;2024-02-21T08:50:35;9.10;82.20
5960;DHT22;3006;50.956;7.002;2024-02-21T08:53:05;9.20;81.70
5960;DHT22;3006;50.956;7.002;2024-02-21T08:55:34;9.20;81.40
5960;DHT22;3006;50.956;7.002;2024-02-21T08:58:03;9.20;80.90
5960;DHT22;3006;50.956;7.002;2024-02-21T09:00:33;9.20;80.70
5960;DHT22;3006;50.956;7.002;2024-02-21T09:03:01;9.20;80.30
5960;DHT22;3006;50.956;7.002;2024-02-21T09:05:29;9.10;80.40
5960;DHT22;3006;50.956;7.002;2024-02-21T09:07:57;9.10;80.40
5960;DHT22;3006;50.956;7.002;2024-02-21T09:10:26;9.20;80.50
5960;DHT22;3006;50.956;7.002;2024-02-21T09:12:54;9.40;80.20
5960;DHT22;3006;50.956;7.002;2024-02-21T09:15:22;9.50;79.80
5960;DHT22;3006;50.956;7.002;2024-02-21T09:17:52;9.60;79.20
5960;DHT22;3006;50.956;7.002;2024-02-21T09:20:21;9.60;78.50
5960;DHT22;3006;50.956;7.002;2024-02-21T09:22:49;9.50;78.80
5960;DHT22;3006;50.956;7.002;2024-02-21T09:25:18;9.60;78.50
5960;DHT22;3006;50.956;7.002;2024-02-21T09:27:46;9.50;77.80
5960;DHT22;3006;50.956;7.002;2024-02-21T09:30:15;9.40;78.10
5960;DHT22;3006;50.956;7.002;2024-02-21T09:32:43;9.50;77.90
5960;DHT22;3006;50.956;7.002;2024-02-21T09:35:13;9.50;77.70
5960;DHT22;3006;50.956;7.002;2024-02-21T09:37:42;9.50;77.80
5960;DHT22;3006;50.956;7.002;2024-02-21T09:40:10;9.60;77.50
5960;DHT22;3006;50.956;7.002;2024-02-21T09:42:40;9.60;77.20
5960;DHT22;3006;50.956;7.002;2024-02-21T09:45:20;9.60;77.00
5960;DHT22;3006;50.956;7.002;2024-02-21T09:48:02;9.60;77.20
5960;DHT22;3006;50.956;7.002;2024-02-21T09:50:36;9.60;76.70
5960;DHT22;3006;50.956;7.002;2024-02-21T09:53:07;9.60;76.50
5960;DHT22;3006;50.956;7.002;2024-02-21T09:55:37;9.70;76.10
5960;DHT22;3006;50.956;7.002;2024-02-21T09:58:07;9.70;75.80
5960;DHT22;3006;50.956;7.002;2024-02-21T10:00:36;9.70;76.00
5960;DHT22;3006;50.956;7.002;2024-02-21T10:03:04;9.90;75.40
5960;DHT22;3006;50.956;7.002;2024-02-21T10:05:38;9.80;74.90
5960;DHT22;3006;50.956;7.002;2024-02-21T10:08:06;9.90;75.00
5960;DHT22;3006;50.956;7.002;2024-02-21T10:10:43;9.90;75.10
5960;DHT22;3006;50.956;7.002;2024-02-21T10:13:21;9.90;74.40
5960;DHT22;3006;50.956;7.002;2024-02-21T10:16:01;10.00;74.40
5960;DHT22;3006;50.956;7.002;2024-02-21T10:18:29;10.00;74.50
5960;DHT22;3006;50.956;7.002;2024-02-21T10:21:03;10.00;74.40
5960;DHT22;3006;50.956;7.002;2024-02-21T10:23:42;10.00;74.50
5960;DHT22;3006;50.956;7.002;2024-02-21T10:26:12;10.10;74.00
5960;DHT22;3006;50.956;7.002;2024-02-21T10:28:40;10.20;73.70
5960;DHT22;3006;50.956;7.002;2024-02-21T10:31:10;10.20;73.00
5960;DHT22;3006;50.956;7.002;2024-02-21T10:33:38;10.20;73.60
5960;DHT22;3006;50.956;7.002;2024-02-21T10:36:09;10.40;73.00
5960;DHT22;3006;50.956;7.002;2024-02-21T10:38:38;10.40;72.70
5960;DHT22;3006;50.956;7.002;2024-02-21T10:41:06;10.40;72.70
5960;DHT22;3006;50.956;7.002;2024-02-21T10:43:39;10.50;72.60
5960;DHT22;3006;50.956;7.002;2024-02-21T10:46:08;10.60;71.90
5960;DHT22;3006;50.956;7.002;2024-02-21T10:48:47;10.70;71.40
5960;DHT22;3006;50.956;7.002;2024-02-21T10:51:18;10.60;71.60
5960;DHT22;3006;50.956;7.002;2024-02-21T10:53:53;10.60;72.00
5960;DHT22;3006;50.956;7.002;2024-02-21T10:56:28;10.70;71.50
5960;DHT22;3006;50.956;7.002;2024-02-21T10:58:58;10.60;71.00
5960;DHT22;3006;50.956;7.002;2024-02-21T11:01:29;10.60;71.40
5960;DHT22;3006;50.956;7.002;2024-02-21T11:04:01;10.70;71.80
5960;DHT22;3006;50.956;7.002;2024-02-21T11:06:33;10.80;71.00
5960;DHT22;3006;50.956;7.002;2024-02-21T11:09:03;10.60;71.00
5960;DHT22;3006;50.956;7.002;2024-02-21T11:11:33;10.70;71.10
5960;DHT22;3006;50.956;7.002;2024-02-21T11:14:08;10.80;70.90
5960;DHT22;3006;50.956;7.002;2024-02-21T11:16:37;10.90;70.40
5960;DHT22;3006;50.956;7.002;2024-02-21T11:19:07;10.90;70.00
5960;DHT22;3006;50.956;7.002;2024-02-21T11:21:38;10.90;70.20
5960;DHT22;3006;50.956;7.002;2024-02-21T11:24:08;11.00;69.80
5960;DHT22;3006;50.956;7.002;2024-02-21T11:26:37;11.00;69.90
5960;DHT22;3006;50.956;7.002;2024-02-21T11:29:06;11.10;69.90
5960;DHT22;3006;50.956;7.002;2024-02-21T11:31:39;11.10;69.50
5960;DHT22;3006;50.956;7.002;2024-02-21T11:34:10;11.00;69.50
5960;DHT22;3006;50.956;7.002;2024-02-21T11:36:48;10.80;70.20
5960;DHT22;3006;50.956;7.002;2024-02-21T11:39:21;10.90;69.80
5960;DHT22;3006;50.956;7.002;2024-02-21T11:42:03;11.00;69.30
5960;DHT22;3006;50.956;7.002;2024-02-21T11:44:31;11.00;69.40
5960;DHT22;3006;50.956;7.002;2024-02-21T11:47:00;10.90;69.90
5960;DHT22;3006;50.956;7.002;2024-02-21T11:49:30;11.00;69.70
5960;DHT22;3006;50.956;7.002;2024-02-21T11:52:01;11.10;69.60
5960;DHT22;3006;50.956;7.002;2024-02-21T11:54:31;11.20;69.10
5960;DHT22;3006;50.956;7.002;2024-02-21T11:56:59;11.20;69.30
5960;DHT22;3006;50.956;7.002;2024-02-21T11:59:30;11.20;69.30
5960;DHT22;3006;50.956;7.002;2024-02-21T12:01:59;11.30;69.10
5960;DHT22;3006;50.956;7.002;2024-02-21T12:04:27;11.40;68.70
5960;DHT22;3006;50.956;7.002;2024-02-21T12:06:58;11.30;68.80
5960;DHT22;3006;50.956;7.002;2024-02-21T12:09:27;11.10;68.80
5960;DHT22;3006;50.956;7.002;2024-02-21T12:11:59;11.10;69.40
5960;DHT22;3006;50.956;7.002;2024-02-21T12:14:29;11.10;69.30
5960;DHT22;3006;50.956;7.002;2024-02-21T12:16:58;11.10;69.00
5960;DHT22;3006;50.956;7.002;2024-02-21T12:19:28;11.10;69.50
5960;DHT22;3006;50.956;7.002;2024-02-21T12:21:56;11.10;69.50
5960;DHT22;3006;50.956;7.002;2024-02-21T12:24:28;11.10;69.20
5960;DHT22;3006;50.956;7.002;2024-02-21T12:26:57;11.20;69.20
5960;DHT22;3006;50.956;7.002;2024-02-21T12:29:27;11.10;68.70
5960;DHT22;3006;50.956;7.002;2024-02-21T12:31:56;11.10;69.60
5960;DHT22;3006;50.956;7.002;2024-02-21T12:34:24;11.10;69.10
5960;DHT22;3006;50.956;7.002;2024-02-21T12:37:10;11.10;69.50
5960;DHT22;3006;50.956;7.002;2024-02-21T12:39:41;11.30;69.20
5960;DHT22;3006;50.956;7.002;2024-02-21T12:42:10;11.30;69.00
5960;DHT22;3006;50.956;7.002;2024-02-21T12:44:39;11.20;68.70
5960;DHT22;3006;50.956;7.002;2024-02-21T12:47:08;11.30;69.20
5960;DHT22;3006;50.956;7.002;2024-02-21T12:49:36;11.40;69.00
5960;DHT22;3006;50.956;7.002;2024-02-21T12:52:09;11.50;68.70
5960;DHT22;3006;50.956;7.002;2024-02-21T12:54:38;11.50;68.50
5960;DHT22;3006;50.956;7.002;2024-02-21T12:57:08;11.50;68.30
5960;DHT22;3006;50.956;7.002;2024-02-21T12:59:36;11.40;69.00
5960;DHT22;3006;50.956;7.002;2024-02-21T13:02:04;11.30;69.30
5960;DHT22;3006;50.956;7.002;2024-02-21T13:04:33;11.10;69.50
5960;DHT22;3006;50.956;7.002;2024-02-21T13:07:01;11.10;69.80
5960;DHT22;3006;50.956;7.002;2024-02-21T13:09:29;11.10;69.20
5960;DHT22;3006;50.956;7.002;2024-02-21T13:11:58;11.10;69.30
5960;DHT22;3006;50.956;7.002;2024-02-21T13:14:27;11.40;69.00
5960;DHT22;3006;50.956;7.002;2024-02-21T13:16:55;11.40;68.50
5960;DHT22;3006;50.956;7.002;2024-02-21T13:19:24;11.50;68.50
5960;DHT22;3006;50.956;7.002;2024-02-21T13:21:52;11.50;68.20
5960;DHT22;3006;50.956;7.002;2024-02-21T13:24:20;11.70;67.70
5960;DHT22;3006;50.956;7.002;2024-02-21T13:26:49;11.60;67.70
5960;DHT22;3006;50.956;7.002;2024-02-21T13:29:17;11.70;67.60
5960;DHT22;3006;50.956;7.002;2024-02-21T13:31:46;11.90;67.10
5960;DHT22;3006;50.956;7.002;2024-02-21T13:34:15;11.90;66.50
5960;DHT22;3006;50.956;7.002;2024-02-21T13:36:43;11.70;66.60
5960;DHT22;3006;50.956;7.002;2024-02-21T13:39:12;11.70;66.70
5960;DHT22;3006;50.956;7.002;2024-02-21T13:41:42;11.70;66.70
5960;DHT22;3006;50.956;7.002;2024-02-21T13:44:11;11.70;66.50
5960;DHT22;3006;50.956;7.002;2024-02-21T13:46:40;11.70;66.40
5960;DHT22;3006;50.956;7.002;2024-02-21T13:49:09;11.60;66.60
5960;DHT22;3006;50.956;7.002;2024-02-21T13:51:38;11.50;66.60
5960;DHT22;3006;50.956;7.002;2024-02-21T13:54:07;11.40;67.00
5960;DHT22;3006;50.956;7.002;2024-02-21T13:56:36;11.50;67.00
5960;DHT22;3006;50.956;7.002;2024-02-21T13:59:04;11.60;66.70
5960;DHT22;3006;50.956;7.002;2024-02-21T14:01:33;11.60;66.40
5960;DHT22;3006;50.956;7.002;2024-02-21T14:04:03;11.50;66.60
5960;DHT22;3006;50.956;7.002;2024-02-21T14:06:33;11.50;66.50
5960;DHT22;3006;50.956;7.002;2024-02-21T14:09:02;11.40;66.50
5960;DHT22;3006;50.956;7.002;2024-02-21T14:11:31;11.40;66.60
5960;DHT22;3006;50.956;7.002;2024-02-21T14:14:00;11.40;66.50
5960;DHT22;3006;50.956;7.002;2024-02-21T14:16:28;11.40;66.60
5960;DHT22;3006;50.956;7.002;2024-02-21T14:18:56;11.40;66.70
5960;DHT22;3006;50.956;7.002;2024-02-21T14:21:24;11.40;66.60
5960;DHT22;3006;50.956;7.002;2024-02-21T14:23:54;11.50;66.30
5960;DHT22;3006;50.956;7.002;2024-02-21T14:26:23;11.50;66.60
5960;DHT22;3006;50.956;7.002;2024-02-21T14:28:51;11.50;66.30
5960;DHT22;3006;50.956;7.002;2024-02-21T14:31:20;11.40;66.40
5960;DHT22;3006;50.956;7.002;2024-02-21T14:33:51;11.40;66.20
5960;DHT22;3006;50.956;7.002;2024-02-21T14:36:19;11.40;66.60
5960;DHT22;3006;50.956;7.002;2024-02-21T14:38:47;11.40;66.50
5960;DHT22;3006;50.956;7.002;2024-02-21T14:41:17;11.50;66.80
5960;DHT22;3006;50.956;7.002;2024-02-21T14:43:46;12.50;69.80
5960;DHT22;3006;50.956;7.002;2024-02-21T14:46:14;12.90;66.60
5960;DHT22;3006;50.956;7.002;2024-02-21T14:48:42;13.00;64.60
5960;DHT22;3006;50.956;7.002;2024-02-21T14:51:12;13.00;64.00
5960;DHT22;3006;50.956;7.002;2024-02-21T14:53:40;13.10;63.00
5960;DHT22;3006;50.956;7.002;2024-02-21T14:56:12;13.00;63.50
5960;DHT22;3006;50.956;7.002;2024-02-21T14:58:43;12.50;64.10
5960;DHT22;3006;50.956;7.002;2024-02-21T15:01:11;11.80;66.10
5960;DHT22;3006;50.956;7.002;2024-02-21T15:03:40;11.50;67.20
5960;DHT22;3006;50.956;7.002;2024-02-21T15:06:09;11.50;67.80
5960;DHT22;3006;50.956;7.002;2024-02-21T15:08:38;11.40;68.00
5960;DHT22;3006;50.956;7.002;2024-02-21T15:11:06;11.40;67.90
5960;DHT22;3006;50.956;7.002;2024-02-21T15:13:35;11.40;67.90
5960;DHT22;3006;50.956;7.002;2024-02-21T15:16:06;11.50;67.70
5960;DHT22;3006;50.956;7.002;2024-02-21T15:18:34;11.50;67.50
5960;DHT22;3006;50.956;7.002;2024-02-21T15:21:05;11.40;67.60
5960;DHT22;3006;50.956;7.002;2024-02-21T15:23:34;11.30;67.50
5960;DHT22;3006;50.956;7.002;2024-02-21T15:26:02;11.30;67.20
5960;DHT22;3006;50.956;7.002;2024-02-21T15:28:30;11.40;67.10
5960;DHT22;3006;50.956;7.002;2024-02-21T15:30:58;11.40;66.80
5960;DHT22;3006;50.956;7.002;2024-02-21T15:33:28;11.30;66.70
5960;DHT22;3006;50.956;7.002;2024-02-21T15:35:56;11.30;66.70
5960;DHT22;3006;50.956;7.002;2024-02-21T15:38:25;11.20;67.00
5960;DHT22;3006;50.956;7.002;2024-02-21T15:40:55;11.30;67.00
5960;DHT22;3006;50.956;7.002;2024-02-21T15:43:23;11.30;66.10
5960;DHT22;3006;50.956;7.002;2024-02-21T15:45:54;11.30;65.00
5960;DHT22;3006;50.956;7.002;2024-02-21T15:48:23;11.30;64.60
5960;DHT22;3006;50.956;7.002;2024-02-21T15:50:53;11.30;63.80
5960;DHT22;3006;50.956;7.002;2024-02-21T15:53:22;11.30;62.70
5960;DHT22;3006;50.956;7.002;2024-02-21T15:55:50;11.30;62.20
5960;DHT22;3006;50.956;7.002;2024-02-21T15:58:18;11.30;61.40
5960;DHT22;3006;50.956;7.002;2024-02-21T16:00:49;11.30;60.90
5960;DHT22;3006;50.956;7.002;2024-02-21T16:03:17;11.30;60.00
5960;DHT22;3006;50.956;7.002;2024-02-21T16:05:46;11.30;60.00
5960;DHT22;3006;50.956;7.002;2024-02-21T16:08:15;11.30;59.90
5960;DHT22;3006;50.956;7.002;2024-02-21T16:10:45;11.20;59.60
5960;DHT22;3006;50.956;7.002;2024-02-21T16:13:14;11.30;59.70
5960;DHT22;3006;50.956;7.002;2024-02-21T16:15:42;11.30;59.80
5960;DHT22;3006;50.956;7.002;2024-02-21T16:18:11;11.20;59.40
5960;DHT22;3006;50.956;7.002;2024-02-21T16:20:40;11.20;59.70
5960;DHT22;3006;50.956;7.002;2024-02-21T16:23:09;11.20;60.20
5960;DHT22;3006;50.956;7.002;2024-02-21T16:25:39;11.10;60.50